Fairfax, VA

11:13 PM EDT on September 02, 2015 (GMT -0400)
Fairfax - Kings Park West (II) | | Change Station
CLOSE
Current Station
Personal Weather Station
Location: Fairfax, VA
Elevation: 397 ft
Nearby Weather Stations

Elev 397 ft 38.81 °N, 77.30 °W | Updated 6 seconds ago

Clear
Clear
70.9 °F
Feels Like 70.9 °F
N
0.0
Wind Variable Wind from NNW
Gusts 0.0 mph

Today
High -- | Low -- °F
--% Chance of Precip.
Yesterday
High -- | Low -- °F
Precip. -- in
6:38 AM 7:38 PM
Waning Gibbous, 74% visible
Pressure 29.97 in
Visibility 5.0 miles
Clouds Clear
Dew Point 70 °F
Humidity 99%
Rainfall 0.50 in
Snow Depth Not available.
UV 0 out of 12
Pollen 9.40 out of 12
Air Quality Not available.
Flu Activity Not available.
METAR KDAA 030258Z AUTO 13002KT 5SM R32/5000FT BR CLR 22/21 A2996 RMK AO2 SLP148 T02180206 50007
Pressure 29.97 in
Visibility 5.0 miles
Clouds Clear
Dew Point 70 °F
Humidity 99%
Rainfall 0.50 in
Snow Depth Not available.
UV 0 out of 12
Pollen 9.40 out of 12
Air Quality Not available.
Flu Activity Not available.
METAR KDAA 030258Z AUTO 13002KT 5SM R32/5000FT BR CLR 22/21 A2996 RMK AO2 SLP148 T02180206 50007

10-Day Weather Forecast

×

Almanac

Astronomy

Sep. 02, 2015 Rise Set
Actual Time
Civil Twilight
Nautical Twilight
Astronomical Twilight
Moon
Length of Visible Light
Length of Day
Tomorrow will be .
, % of the Moon is Illuminated

Today's Extremes

State Highs State Lows

Community

WunderPhotos

Upload Photos

1,851,892 photos uploaded!

WunderBlogs® & News

Nearby

Air Quality

  Air Quality AQ Index Pollutant
Not available.

Snow Depth

Station Depth Elevation

Earthquake Activity

City Distance Mag. Time & Date
Minimum magnitude displayed is 2.5.

Coastal Water Temperatures

Place Temperature

Stations

Nearby Weather Stations

Station Location Temp. Windchill Dew Point Humidity Wind Precip. Elev Updated Type